sensor_id;sensor_type;location;lat;lon;timestamp;pressure;altitude;pressure_sealevel;temperature;humidity
43838;BME280;65998;46.256;7.534;2024-03-02T00:00:07;85907.03;;;2.68;100.00
43838;BME280;65998;46.256;7.534;2024-03-02T00:02:32;85912.44;;;2.74;100.00
43838;BME280;65998;46.256;7.534;2024-03-02T00:04:58;85913.13;;;2.66;100.00
43838;BME280;65998;46.256;7.534;2024-03-02T00:07:24;85918.56;;;2.68;100.00
43838;BME280;65998;46.256;7.534;2024-03-02T00:09:53;85915.16;;;2.64;100.00
43838;BME280;65998;46.256;7.534;2024-03-02T00:12:19;85915.16;;;2.58;100.00
43838;BME280;65998;46.256;7.534;2024-03-02T00:14:45;85919.22;;;2.56;100.00
43838;BME280;65998;46.256;7.534;2024-03-02T00:17:20;85911.78;;;2.55;100.00
43838;BME280;65998;46.256;7.534;2024-03-02T00:19:46;85914.47;;;2.49;100.00
43838;BME280;65998;46.256;7.534;2024-03-02T00:22:12;85917.88;;;2.45;100.00
43838;BME280;65998;46.256;7.534;2024-03-02T00:24:41;85916.50;;;2.42;100.00
43838;BME280;65998;46.256;7.534;2024-03-02T00:27:07;85917.88;;;2.39;100.00
43838;BME280;65998;46.256;7.534;2024-03-02T00:29:34;85926.00;;;2.37;100.00
43838;BME280;65998;46.256;7.534;2024-03-02T00:32:01;85916.50;;;2.28;100.00
43838;BME280;65998;46.256;7.534;2024-03-02T00:34:27;85917.19;;;2.22;100.00
43838;BME280;65998;46.256;7.534;2024-03-02T00:36:52;85928.03;;;2.24;100.00
43838;BME280;65998;46.256;7.534;2024-03-02T00:39:18;85923.28;;;2.19;100.00
43838;BME280;65998;46.256;7.534;2024-03-02T00:41:44;85928.69;;;2.15;100.00
43838;BME280;65998;46.256;7.534;2024-03-02T00:44:15;85927.34;;;2.16;100.00
43838;BME280;65998;46.256;7.534;2024-03-02T00:46:42;85930.72;;;2.14;100.00
43838;BME280;65998;46.256;7.534;2024-03-02T00:49:21;85932.09;;;2.17;100.00
43838;BME280;65998;46.256;7.534;2024-03-02T00:51:49;85926.66;;;2.17;100.00
43838;BME280;65998;46.256;7.534;2024-03-02T00:54:19;85924.63;;;2.24;100.00
43838;BME280;65998;46.256;7.534;2024-03-02T00:56:46;85926.00;;;2.37;100.00
43838;BME280;65998;46.256;7.534;2024-03-02T00:59:13;85940.25;;;2.48;100.00
43838;BME280;65998;46.256;7.534;2024-03-02T01:01:38;85938.88;;;2.55;100.00
43838;BME280;65998;46.256;7.534;2024-03-02T01:04:04;85938.22;;;2.56;100.00
43838;BME280;65998;46.256;7.534;2024-03-02T01:06:30;85936.19;;;2.55;100.00
43838;BME280;65998;46.256;7.534;2024-03-02T01:08:57;85938.88;;;2.59;100.00
43838;BME280;65998;46.256;7.534;2024-03-02T01:11:22;85940.25;;;2.58;100.00
43838;BME280;65998;46.256;7.534;2024-03-02T01:13:49;85939.56;;;2.49;100.00
43838;BME280;65998;46.256;7.534;2024-03-02T01:16:14;85947.69;;;2.51;100.00
43838;BME280;65998;46.256;7.534;2024-03-02T01:18:41;85933.47;;;2.51;100.00
43838;BME280;65998;46.256;7.534;2024-03-02T01:21:07;85941.59;;;2.43;100.00
43838;BME280;65998;46.256;7.534;2024-03-02T01:23:33;85936.16;;;2.35;100.00
43838;BME280;65998;46.256;7.534;2024-03-02T01:25:59;85931.41;;;2.33;100.00
43838;BME280;65998;46.256;7.534;2024-03-02T01:28:25;85937.53;;;2.34;100.00
43838;BME280;65998;46.256;7.534;2024-03-02T01:30:50;85930.75;;;2.31;100.00
43838;BME280;65998;46.256;7.534;2024-03-02T01:33:17;85934.13;;;2.23;100.00
43838;BME280;65998;46.256;7.534;2024-03-02T01:35:43;85931.41;;;2.15;100.00
43838;BME280;65998;46.256;7.534;2024-03-02T01:38:09;85935.47;;;2.16;100.00
43838;BME280;65998;46.256;7.534;2024-03-02T01:40:35;85932.75;;;2.12;100.00
43838;BME280;65998;46.256;7.534;2024-03-02T01:43:01;85936.78;;;2.07;100.00
43838;BME280;65998;46.256;7.534;2024-03-02T01:45:27;85932.06;;;2.11;100.00
43838;BME280;65998;46.256;7.534;2024-03-02T01:47:54;85929.31;;;2.05;100.00
43838;BME280;65998;46.256;7.534;2024-03-02T01:50:31;85923.22;;;2.03;100.00
43838;BME280;65998;46.256;7.534;2024-03-02T01:52:58;85923.88;;;1.97;100.00
43838;BME280;65998;46.256;7.534;2024-03-02T01:55:24;85929.28;;;1.91;100.00
43838;BME280;65998;46.256;7.534;2024-03-02T01:57:50;85928.63;;;1.88;100.00
43838;BME280;65998;46.256;7.534;2024-03-02T02:00:16;85931.31;;;1.86;100.00
43838;BME280;65998;46.256;7.534;2024-03-02T02:02:43;85923.19;;;1.84;100.00
43838;BME280;65998;46.256;7.534;2024-03-02T02:05:09;85914.38;;;1.80;100.00
43838;BME280;65998;46.256;7.534;2024-03-02T02:07:35;85915.72;;;1.77;100.00
43838;BME280;65998;46.256;7.534;2024-03-02T02:10:01;85917.06;;;1.74;100.00
43838;BME280;65998;46.256;7.534;2024-03-02T02:12:27;85921.13;;;1.73;100.00
43838;BME280;65998;46.256;7.534;2024-03-02T02:14:56;85913.66;;;1.71;100.00
43838;BME280;65998;46.256;7.534;2024-03-02T02:17:21;85913.66;;;1.67;100.00
43838;BME280;65998;46.256;7.534;2024-03-02T02:19:47;85918.41;;;1.67;100.00
43838;BME280;65998;46.256;7.534;2024-03-02T02:22:13;85907.56;;;1.65;100.00
43838;BME280;65998;46.256;7.534;2024-03-02T02:24:42;85904.84;;;1.67;100.00
43838;BME280;65998;46.256;7.534;2024-03-02T02:27:08;85903.50;;;1.62;100.00
43838;BME280;65998;46.256;7.534;2024-03-02T02:29:34;85898.75;;;1.62;100.00
43838;BME280;65998;46.256;7.534;2024-03-02T02:32:00;85896.03;;;1.62;100.00
43838;BME280;65998;46.256;7.534;2024-03-02T02:34:26;85890.63;;;1.60;100.00
43838;BME280;65998;46.256;7.534;2024-03-02T02:36:52;85891.97;;;1.61;100.00
43838;BME280;65998;46.256;7.534;2024-03-02T02:39:20;85895.38;;;1.66;100.00
43838;BME280;65998;46.256;7.534;2024-03-02T02:41:47;85886.56;;;1.63;100.00
43838;BME280;65998;46.256;7.534;2024-03-02T02:44:12;85889.94;;;1.62;100.00
43838;BME280;65998;46.256;7.534;2024-03-02T02:46:39;85883.84;;;1.55;100.00
43838;BME280;65998;46.256;7.534;2024-03-02T02:49:05;85879.09;;;1.51;100.00
43838;BME280;65998;46.256;7.534;2024-03-02T02:51:31;85878.41;;;1.49;100.00
43838;BME280;65998;46.256;7.534;2024-03-02T02:53:56;85876.38;;;1.47;100.00
43838;BME280;65998;46.256;7.534;2024-03-02T02:56:22;85871.63;;;1.48;100.00
43838;BME280;65998;46.256;7.534;2024-03-02T02:58:48;85870.28;;;1.45;100.00
43838;BME280;65998;46.256;7.534;2024-03-02T03:01:17;85870.97;;;1.45;100.00
43838;BME280;65998;46.256;7.534;2024-03-02T03:03:43;85872.31;;;1.42;100.00
43838;BME280;65998;46.256;7.534;2024-03-02T03:06:10;85873.66;;;1.41;100.00
43838;BME280;65998;46.256;7.534;2024-03-02T03:08:36;85874.31;;;1.40;100.00
43838;BME280;65998;46.256;7.534;2024-03-02T03:11:02;85859.44;;;1.37;100.00
43838;BME280;65998;46.256;7.534;2024-03-02T03:13:28;85862.81;;;1.33;100.00
43838;BME280;65998;46.256;7.534;2024-03-02T03:15:54;85859.41;;;1.33;100.00
43838;BME280;65998;46.256;7.534;2024-03-02T03:18:20;85855.34;;;1.32;100.00
43838;BME280;65998;46.256;7.534;2024-03-02T03:20:45;85849.94;;;1.30;100.00
43838;BME280;65998;46.256;7.534;2024-03-02T03:23:11;85849.25;;;1.31;100.00
43838;BME280;65998;46.256;7.534;2024-03-02T03:25:37;85852.63;;;1.30;100.00
43838;BME280;65998;46.256;7.534;2024-03-02T03:28:03;85853.34;;;1.34;100.00
43838;BME280;65998;46.256;7.534;2024-03-02T03:30:29;85850.63;;;1.32;100.00
43838;BME280;65998;46.256;7.534;2024-03-02T03:32:55;85852.66;;;1.32;100.00
43838;BME280;65998;46.256;7.534;2024-03-02T03:35:21;85849.25;;;1.31;100.00
43838;BME280;65998;46.256;7.534;2024-03-02T03:37:46;85856.03;;;1.28;100.00
43838;BME280;65998;46.256;7.534;2024-03-02T03:40:12;85847.22;;;1.27;100.00
43838;BME280;65998;46.256;7.534;2024-03-02T03:42:39;85853.97;;;1.26;100.00
43838;BME280;65998;46.256;7.534;2024-03-02T03:45:08;85862.13;;;1.31;100.00
43838;BME280;65998;46.256;7.534;2024-03-02T03:47:34;85860.75;;;1.30;100.00
43838;BME280;65998;46.256;7.534;2024-03-02T03:50:00;85859.41;;;1.31;100.00
43838;BME280;65998;46.256;7.534;2024-03-02T03:52:25;85867.53;;;1.28;100.00
43838;BME280;65998;46.256;7.534;2024-03-02T03:54:51;85853.97;;;1.22;100.00
43838;BME280;65998;46.256;7.534;2024-03-02T03:57:17;85852.63;;;1.25;100.00
43838;BME280;65998;46.256;7.534;2024-03-02T03:59:43;85861.41;;;1.24;100.00
43838;BME280;65998;46.256;7.534;2024-03-02T04:02:09;85859.38;;;1.22;100.00
43838;BME280;65998;46.256;7.534;2024-03-02T04:04:35;85856.66;;;1.20;100.00
43838;BME280;65998;46.256;7.534;2024-03-02T04:07:01;85862.75;;;1.21;100.00
43838;BME280;65998;46.256;7.534;2024-03-02T04:09:27;85857.34;;;1.19;100.00
43838;BME280;65998;46.256;7.534;2024-03-02T04:11:53;85855.97;;;1.18;100.00
43838;BME280;65998;46.256;7.534;2024-03-02T04:14:19;85856.66;;;1.18;100.00
43838;BME280;65998;46.256;7.534;2024-03-02T04:16:45;85853.94;;;1.14;100.00
43838;BME280;65998;46.256;7.534;2024-03-02T04:19:11;85850.56;;;1.12;100.00
43838;BME280;65998;46.256;7.534;2024-03-02T04:21:36;85851.22;;;1.10;100.00
43838;BME280;65998;46.256;7.534;2024-03-02T04:24:02;85850.53;;;1.10;100.00
43838;BME280;65998;46.256;7.534;2024-03-02T04:26:28;85847.16;;;1.07;100.00
43838;BME280;65998;46.256;7.534;2024-03-02T04:28:54;85851.19;;;1.04;100.00
43838;BME280;65998;46.256;7.534;2024-03-02T04:31:21;85850.50;;;1.04;100.00
43838;BME280;65998;46.256;7.534;2024-03-02T04:33:47;85851.84;;;1.01;100.00
43838;BME280;65998;46.256;7.534;2024-03-02T04:36:13;85850.47;;;1.02;100.00
43838;BME280;65998;46.256;7.534;2024-03-02T04:38:39;85845.75;;;1.00;100.00
43838;BME280;65998;46.256;7.534;2024-03-02T04:41:06;85847.75;;;0.98;100.00
43838;BME280;65998;46.256;7.534;2024-03-02T04:43:32;85848.44;;;0.98;100.00
43838;BME280;65998;46.256;7.534;2024-03-02T04:45:59;85847.09;;;1.01;100.00
43838;BME280;65998;46.256;7.534;2024-03-02T04:48:25;85850.47;;;1.02;100.00
43838;BME280;65998;46.256;7.534;2024-03-02T04:50:51;85855.22;;;1.03;100.00
43838;BME280;65998;46.256;7.534;2024-03-02T04:53:16;85851.84;;;1.03;100.00
43838;BME280;65998;46.256;7.534;2024-03-02T04:55:43;85857.97;;;1.05;100.00
43838;BME280;65998;46.256;7.534;2024-03-02T04:58:09;85857.28;;;1.05;100.00
43838;BME280;65998;46.256;7.534;2024-03-02T05:00:35;85857.97;;;1.05;100.00
43838;BME280;65998;46.256;7.534;2024-03-02T05:03:02;85861.34;;;1.06;100.00
43838;BME280;65998;46.256;7.534;2024-03-02T05:05:28;85863.34;;;1.01;100.00
43838;BME280;65998;46.256;7.534;2024-03-02T05:07:54;85870.81;;;1.05;100.00
43838;BME280;65998;46.256;7.534;2024-03-02T05:10:20;85869.44;;;1.04;100.00
43838;BME280;65998;46.256;7.534;2024-03-02T05:12:46;85858.66;;;1.08;100.00
43838;BME280;65998;46.256;7.534;2024-03-02T05:15:13;85860.69;;;1.09;100.00
43838;BME280;65998;46.256;7.534;2024-03-02T05:17:40;85863.38;;;1.07;100.00
43838;BME280;65998;46.256;7.534;2024-03-02T05:20:07;85866.75;;;1.06;100.00
43838;BME280;65998;46.256;7.534;2024-03-02T05:22:33;85868.75;;;1.01;100.00
43838;BME280;65998;46.256;7.534;2024-03-02T05:24:59;85870.09;;;1.00;100.00
43838;BME280;65998;46.256;7.534;2024-03-02T05:27:24;85867.34;;;0.94;100.00
43838;BME280;65998;46.256;7.534;2024-03-02T05:29:50;85871.41;;;0.95;100.00
43838;BME280;65998;46.256;7.534;2024-03-02T05:32:16;85865.31;;;0.92;100.00
43838;BME280;65998;46.256;7.534;2024-03-02T05:34:42;85873.41;;;0.88;100.00
43838;BME280;65998;46.256;7.534;2024-03-02T05:37:08;85872.75;;;0.88;100.00
43838;BME280;65998;46.256;7.534;2024-03-02T05:39:33;85884.22;;;0.86;100.00
43838;BME280;65998;46.256;7.534;2024-03-02T05:41:59;85882.19;;;0.85;100.00
43838;BME280;65998;46.256;7.534;2024-03-02T05:44:25;85885.56;;;0.85;100.00
43838;BME280;65998;46.256;7.534;2024-03-02T05:46:51;85886.25;;;0.84;100.00
43838;BME280;65998;46.256;7.534;2024-03-02T05:49:17;85888.94;;;0.84;100.00
43838;BME280;65998;46.256;7.534;2024-03-02T05:51:42;85886.91;;;0.84;100.00
43838;BME280;65998;46.256;7.534;2024-03-02T05:54:08;85890.97;;;0.85;100.00
43838;BME280;65998;46.256;7.534;2024-03-02T05:56:35;85882.88;;;0.87;100.00
43838;BME280;65998;46.256;7.534;2024-03-02T05:59:01;85888.28;;;0.87;100.00
43838;BME280;65998;46.256;7.534;2024-03-02T06:01:27;85892.34;;;0.88;100.00
43838;BME280;65998;46.256;7.534;2024-03-02T06:03:53;85890.34;;;0.91;100.00
43838;BME280;65998;46.256;7.534;2024-03-02T06:06:19;85888.28;;;0.87;100.00
43838;BME280;65998;46.256;7.534;2024-03-02T06:08:45;85888.28;;;0.89;100.00
43838;BME280;65998;46.256;7.534;2024-03-02T06:11:10;85881.53;;;0.86;100.00
43838;BME280;65998;46.256;7.534;2024-03-02T06:13:36;85883.53;;;0.86;100.00
43838;BME280;65998;46.256;7.534;2024-03-02T06:16:02;85884.91;;;0.87;100.00
43838;BME280;65998;46.256;7.534;2024-03-02T06:18:28;85876.81;;;0.89;100.00
43838;BME280;65998;46.256;7.534;2024-03-02T06:20:53;85888.31;;;0.93;100.00
43838;BME280;65998;46.256;7.534;2024-03-02T06:23:19;85885.63;;;0.95;100.00
43838;BME280;65998;46.256;7.534;2024-03-02T06:25:45;85872.78;;;0.96;100.00
43838;BME280;65998;46.256;7.534;2024-03-02T06:28:11;85882.94;;;0.98;100.00
43838;BME280;65998;46.256;7.534;2024-03-02T06:30:36;85867.38;;;1.00;100.00
43838;BME280;65998;46.256;7.534;2024-03-02T06:33:02;85880.97;;;1.10;100.00
43838;BME280;65998;46.256;7.534;2024-03-02T06:35:28;85873.47;;;1.03;100.00
43838;BME280;65998;46.256;7.534;2024-03-02T06:37:54;85880.97;;;1.04;100.00
43838;BME280;65998;46.256;7.534;2024-03-02T06:40:20;85880.97;;;1.06;100.00
43838;BME280;65998;46.256;7.534;2024-03-02T06:42:46;85879.59;;;1.05;100.00
43838;BME280;65998;46.256;7.534;2024-03-02T06:45:11;85881.63;;;1.05;100.00
43838;BME280;65998;46.256;7.534;2024-03-02T06:47:37;85878.94;;;1.05;100.00
43838;BME280;65998;46.256;7.534;2024-03-02T06:50:03;85875.56;;;1.08;100.00
43838;BME280;65998;46.256;7.534;2024-03-02T06:52:29;85884.38;;;1.13;100.00
43838;BME280;65998;46.256;7.534;2024-03-02T06:54:55;85887.09;;;1.17;100.00
43838;BME280;65998;46.256;7.534;2024-03-02T06:57:21;85888.47;;;1.20;100.00
43838;BME280;65998;46.256;7.534;2024-03-02T06:59:46;85885.09;;;1.23;100.00
43838;BME280;65998;46.256;7.534;2024-03-02T07:02:12;85887.81;;;1.27;100.00
43838;BME280;65998;46.256;7.534;2024-03-02T07:04:38;85887.81;;;1.30;100.00
43838;BME280;65998;46.256;7.534;2024-03-02T07:07:04;85881.06;;;1.31;100.00
43838;BME280;65998;46.256;7.534;2024-03-02T07:09:30;85890.56;;;1.36;100.00
43838;BME280;65998;46.256;7.534;2024-03-02T07:11:56;85889.22;;;1.47;100.00
43838;BME280;65998;46.256;7.534;2024-03-02T07:14:21;85892.00;;;1.67;100.00
43838;BME280;65998;46.256;7.534;2024-03-02T07:16:47;85890.69;;;1.86;100.00
43838;BME280;65998;46.256;7.534;2024-03-02T07:19:13;85884.66;;;2.08;100.00
43838;BME280;65998;46.256;7.534;2024-03-02T07:21:39;85883.31;;;2.28;100.00
43838;BME280;65998;46.256;7.534;2024-03-02T07:24:05;85869.75;;;2.50;100.00
43838;BME280;65998;46.256;7.534;2024-03-02T07:26:31;85873.78;;;2.69;100.00
43838;BME280;65998;46.256;7.534;2024-03-02T07:28:57;85867.66;;;2.91;100.00
43838;BME280;65998;46.256;7.534;2024-03-02T07:31:23;85873.03;;;3.24;100.00
43838;BME280;65998;46.256;7.534;2024-03-02T07:33:49;85872.91;;;3.52;100.00
43838;BME280;65998;46.256;7.534;2024-03-02T07:36:15;85872.13;;;3.76;100.00
43838;BME280;65998;46.256;7.534;2024-03-02T07:38:41;85871.41;;;3.85;100.00
43838;BME280;65998;46.256;7.534;2024-03-02T07:41:08;85880.13;;;4.04;100.00
43838;BME280;65998;46.256;7.534;2024-03-02T07:43:34;85884.09;;;4.30;100.00
43838;BME280;65998;46.256;7.534;2024-03-02T07:46:00;85894.19;;;4.45;100.00
43838;BME280;65998;46.256;7.534;2024-03-02T07:48:26;85890.00;;;4.59;100.00
43838;BME280;65998;46.256;7.534;2024-03-02T07:50:52;85893.97;;;4.74;100.00
43838;BME280;65998;46.256;7.534;2024-03-02T07:53:17;85893.19;;;4.88;100.00
43838;BME280;65998;46.256;7.534;2024-03-02T07:55:43;85900.53;;;5.05;100.00
43838;BME280;65998;46.256;7.534;2024-03-02T07:58:09;85898.97;;;5.27;100.00
43838;BME280;65998;46.256;7.534;2024-03-02T08:00:35;85882.31;;;5.59;100.00
43838;BME280;65998;46.256;7.534;2024-03-02T08:03:01;85897.66;;;5.91;100.00
43838;BME280;65998;46.256;7.534;2024-03-02T08:05:27;85887.19;;;6.10;100.00
43838;BME280;65998;46.256;7.534;2024-03-02T08:07:53;85885.63;;;6.27;100.00
43838;BME280;65998;46.256;7.534;2024-03-02T08:10:19;85887.44;;;6.45;100.00
43838;BME280;65998;46.256;7.534;2024-03-02T08:12:45;85880.22;;;6.72;100.00
43838;BME280;65998;46.256;7.534;2024-03-02T08:15:11;85884.38;;;6.67;100.00
43838;BME280;65998;46.256;7.534;2024-03-02T08:17:38;85882.38;;;6.66;100.00
43838;BME280;65998;46.256;7.534;2024-03-02T08:20:05;85878.63;;;6.40;100.00
43838;BME280;65998;46.256;7.534;2024-03-02T08:22:31;85877.00;;;6.60;100.00
43838;BME280;65998;46.256;7.534;2024-03-02T08:24:57;85876.66;;;6.82;100.00
43838;BME280;65998;46.256;7.534;2024-03-02T08:27:22;85869.94;;;7.18;100.00
43838;BME280;65998;46.256;7.534;2024-03-02T08:29:48;85871.38;;;7.56;100.00
43838;BME280;65998;46.256;7.534;2024-03-02T08:32:14;85882.88;;;8.00;97.10
43838;BME280;65998;46.256;7.534;2024-03-02T08:34:40;85883.03;;;8.27;85.81
43838;BME280;65998;46.256;7.534;2024-03-02T08:37:05;85872.53;;;8.73;85.16
43838;BME280;65998;46.256;7.534;2024-03-02T08:39:31;85877.25;;;8.76;82.12
43838;BME280;65998;46.256;7.534;2024-03-02T08:41:57;85884.44;;;8.92;81.28
43838;BME280;65998;46.256;7.534;2024-03-02T08:44:23;85876.41;;;9.44;87.95
43838;BME280;65998;46.256;7.534;2024-03-02T08:46:49;85870.59;;;9.85;80.14
43838;BME280;65998;46.256;7.534;2024-03-02T08:49:15;85863.44;;;9.69;78.91
43838;BME280;65998;46.256;7.534;2024-03-02T08:51:40;85866.53;;;9.82;74.16
43838;BME280;65998;46.256;7.534;2024-03-02T08:54:06;85872.34;;;9.97;72.89
43838;BME280;65998;46.256;7.534;2024-03-02T08:56:32;85871.19;;;10.14;72.73
43838;BME280;65998;46.256;7.534;2024-03-02T08:58:58;85867.94;;;10.60;68.51
43838;BME280;65998;46.256;7.534;2024-03-02T09:01:24;85864.97;;;10.91;66.95
43838;BME280;65998;46.256;7.534;2024-03-02T09:03:50;85861.75;;;11.07;65.59
43838;BME280;65998;46.256;7.534;2024-03-02T09:06:16;85857.28;;;10.95;63.58
43838;BME280;65998;46.256;7.534;2024-03-02T09:08:42;85861.13;;;11.27;65.15
43838;BME280;65998;46.256;7.534;2024-03-02T09:11:08;85856.59;;;11.40;64.59
43838;BME280;65998;46.256;7.534;2024-03-02T09:13:35;85859.38;;;11.61;63.46
43838;BME280;65998;46.256;7.534;2024-03-02T09:16:01;85855.44;;;11.77;65.54
43838;BME280;65998;46.256;7.534;2024-03-02T09:18:27;85849.09;;;11.82;60.32
43838;BME280;65998;46.256;7.534;2024-03-02T09:20:52;85851.50;;;11.93;61.79
43838;BME280;65998;46.256;7.534;2024-03-02T09:23:18;85844.25;;;11.83;61.51
43838;BME280;65998;46.256;7.534;2024-03-02T09:25:44;85845.41;;;11.90;61.48
43838;BME280;65998;46.256;7.534;2024-03-02T09:28:10;85843.75;;;11.76;61.76
43838;BME280;65998;46.256;7.534;2024-03-02T09:30:36;85840.09;;;11.17;63.07
43838;BME280;65998;46.256;7.534;2024-03-02T09:33:02;85838.41;;;10.83;63.49
43838;BME280;65998;46.256;7.534;2024-03-02T09:35:28;85832.72;;;10.89;66.53
43838;BME280;65998;46.256;7.534;2024-03-02T09:37:55;85826.88;;;11.01;63.56
43838;BME280;65998;46.256;7.534;2024-03-02T09:40:22;85823.00;;;10.92;61.66
43838;BME280;65998;46.256;7.534;2024-03-02T09:42:48;85818.44;;;10.84;63.25
43838;BME280;65998;46.256;7.534;2024-03-02T09:45:15;85811.28;;;10.94;64.06
43838;BME280;65998;46.256;7.534;2024-03-02T09:47:41;85811.28;;;10.94;61.34
43838;BME280;65998;46.256;7.534;2024-03-02T09:50:07;85809.50;;;11.07;60.60
43838;BME280;65998;46.256;7.534;2024-03-02T09:52:33;85799.78;;;11.10;61.00
43838;BME280;65998;46.256;7.534;2024-03-02T09:55:00;85799.19;;;10.84;59.09
43838;BME280;65998;46.256;7.534;2024-03-02T09:57:26;85796.09;;;10.74;60.96
43838;BME280;65998;46.256;7.534;2024-03-02T09:59:51;85798.41;;;10.88;61.79
43838;BME280;65998;46.256;7.534;2024-03-02T10:02:17;85797.53;;;11.16;60.74
43838;BME280;65998;46.256;7.534;2024-03-02T10:04:43;85796.72;;;11.20;59.13
43838;BME280;65998;46.256;7.534;2024-03-02T10:07:16;85789.06;;;11.02;59.36
43838;BME280;65998;46.256;7.534;2024-03-02T10:09:43;85788.38;;;10.78;61.31
43838;BME280;65998;46.256;7.534;2024-03-02T10:12:11;85785.47;;;10.84;62.99
43838;BME280;65998;46.256;7.534;2024-03-02T10:14:37;85790.34;;;11.05;63.08
43838;BME280;65998;46.256;7.534;2024-03-02T10:17:05;85788.16;;;11.30;62.22
43838;BME280;65998;46.256;7.534;2024-03-02T10:19:32;85787.88;;;11.82;61.42
43838;BME280;65998;46.256;7.534;2024-03-02T10:21:59;85786.41;;;12.43;62.15
43838;BME280;65998;46.256;7.534;2024-03-02T10:24:25;85787.91;;;12.01;58.80
43838;BME280;65998;46.256;7.534;2024-03-02T10:26:52;85785.94;;;11.35;57.96
43838;BME280;65998;46.256;7.534;2024-03-02T10:29:18;85781.97;;;11.09;59.81
43838;BME280;65998;46.256;7.534;2024-03-02T10:31:45;85782.66;;;10.86;59.19
43838;BME280;65998;46.256;7.534;2024-03-02T10:34:13;85783.63;;;10.77;59.49
43838;BME280;65998;46.256;7.534;2024-03-02T10:36:43;85788.81;;;10.64;58.79
43838;BME280;65998;46.256;7.534;2024-03-02T10:39:09;85788.88;;;10.85;59.85
43838;BME280;65998;46.256;7.534;2024-03-02T10:41:36;85779.22;;;10.86;60.72
43838;BME280;65998;46.256;7.534;2024-03-02T10:44:03;85780.63;;;10.85;60.63
43838;BME280;65998;46.256;7.534;2024-03-02T10:46:31;85784.91;;;11.03;60.79
43838;BME280;65998;46.256;7.534;2024-03-02T10:48:57;85774.59;;;11.24;59.14
43838;BME280;65998;46.256;7.534;2024-03-02T10:51:23;85770.50;;;11.23;60.08
43838;BME280;65998;46.256;7.534;2024-03-02T10:53:49;85781.47;;;11.67;59.18
43838;BME280;65998;46.256;7.534;2024-03-02T10:56:27;85769.84;;;12.64;59.38
43838;BME280;65998;46.256;7.534;2024-03-02T11:01:43;85755.94;;;14.57;53.91
43838;BME280;65998;46.256;7.534;2024-03-02T11:04:13;85766.50;;;14.84;50.57
43838;BME280;65998;46.256;7.534;2024-03-02T11:06:46;85748.34;;;15.33;49.76
43838;BME280;65998;46.256;7.534;2024-03-02T11:09:14;85738.31;;;15.55;44.86
43838;BME280;65998;46.256;7.534;2024-03-02T11:11:43;85734.22;;;15.83;46.18
43838;BME280;65998;46.256;7.534;2024-03-02T11:14:14;85732.78;;;16.69;43.75
43838;BME280;65998;46.256;7.534;2024-03-02T11:16:42;85730.00;;;17.34;43.44
43838;BME280;65998;46.256;7.534;2024-03-02T11:19:13;85739.78;;;18.09;45.09
43838;BME280;65998;46.256;7.534;2024-03-02T11:21:39;85722.44;;;18.45;42.25
43838;BME280;65998;46.256;7.534;2024-03-02T11:26:51;85722.00;;;18.40;39.33
43838;BME280;65998;46.256;7.534;2024-03-02T11:32:02;85706.75;;;18.16;39.72
43838;BME280;65998;46.256;7.534;2024-03-02T11:34:32;85712.66;;;17.97;39.11
43838;BME280;65998;46.256;7.534;2024-03-02T11:36:59;85709.56;;;17.14;41.36
43838;BME280;65998;46.256;7.534;2024-03-02T11:39:27;85709.09;;;16.97;42.39
43838;BME280;65998;46.256;7.534;2024-03-02T11:41:53;85708.91;;;16.46;42.33
43838;BME280;65998;46.256;7.534;2024-03-02T11:44:19;85699.06;;;16.49;42.77
43838;BME280;65998;46.256;7.534;2024-03-02T11:46:51;85704.03;;;16.19;43.77
43838;BME280;65998;46.256;7.534;2024-03-02T11:49:45;85694.59;;;16.14;43.91
43838;BME280;65998;46.256;7.534;2024-03-02T11:52:13;85693.16;;;15.88;43.44
43838;BME280;65998;46.256;7.534;2024-03-02T11:54:40;85678.59;;;16.02;41.85
43838;BME280;65998;46.256;7.534;2024-03-02T11:57:07;85675.97;;;15.85;41.55
43838;BME280;65998;46.256;7.534;2024-03-02T11:59:33;85680.59;;;16.04;42.99
43838;BME280;65998;46.256;7.534;2024-03-02T12:01:59;85681.03;;;16.36;41.68
43838;BME280;65998;46.256;7.534;2024-03-02T12:04:26;85672.63;;;16.38;40.47
43838;BME280;65998;46.256;7.534;2024-03-02T12:06:59;85677.72;;;16.33;41.13
43838;BME280;65998;46.256;7.534;2024-03-02T12:09:26;85673.09;;;16.15;40.21
43838;BME280;65998;46.256;7.534;2024-03-02T12:12:13;85667.38;;;16.32;41.68
43838;BME280;65998;46.256;7.534;2024-03-02T12:14:38;85670.09;;;16.74;42.84
43838;BME280;65998;46.256;7.534;2024-03-02T12:17:05;85666.91;;;17.07;42.54
43838;BME280;65998;46.256;7.534;2024-03-02T12:19:32;85656.88;;;17.63;39.41
43838;BME280;65998;46.256;7.534;2024-03-02T12:21:59;85652.56;;;17.79;38.37
43838;BME280;65998;46.256;7.534;2024-03-02T12:24:29;85653.56;;;17.86;35.93
43838;BME280;65998;46.256;7.534;2024-03-02T12:26:56;85654.88;;;17.62;37.31
43838;BME280;65998;46.256;7.534;2024-03-02T12:29:23;85648.78;;;17.84;39.52
43838;BME280;65998;46.256;7.534;2024-03-02T12:31:49;85647.78;;;17.65;40.12
43838;BME280;65998;46.256;7.534;2024-03-02T12:34:16;85651.56;;;17.59;40.02
43838;BME280;65998;46.256;7.534;2024-03-02T12:36:43;85634.69;;;17.50;40.91
43838;BME280;65998;46.256;7.534;2024-03-02T12:39:09;85634.56;;;17.78;40.83
43838;BME280;65998;46.256;7.534;2024-03-02T12:41:39;85633.91;;;17.77;40.52
43838;BME280;65998;46.256;7.534;2024-03-02T12:44:05;85632.66;;;17.87;39.51
43838;BME280;65998;46.256;7.534;2024-03-02T12:46:32;85621.81;;;18.06;39.74
43838;BME280;65998;46.256;7.534;2024-03-02T12:48:58;85621.75;;;17.96;40.09
43838;BME280;65998;46.256;7.534;2024-03-02T12:51:30;85619.22;;;17.79;38.45
43838;BME280;65998;46.256;7.534;2024-03-02T12:53:59;85616.06;;;17.98;38.20
43838;BME280;65998;46.256;7.534;2024-03-02T12:56:26;85606.31;;;17.86;39.05
43838;BME280;65998;46.256;7.534;2024-03-02T12:58:55;85604.94;;;17.98;37.60
43838;BME280;65998;46.256;7.534;2024-03-02T13:01:21;85602.91;;;18.09;36.73
43838;BME280;65998;46.256;7.534;2024-03-02T13:03:51;85592.81;;;18.27;36.60